Time;durP1;ratioP1;P1;durP2;ratioP2;P2;SDS_P1;SDS_P2;PMS_P1;PMS_P2;Temp;Humidity;BMP_temperature;BMP_pressure;BME280_temperature;BME280_humidity;BME280_pressure;Samples;Min_cycle;Max_cycle;Signal;HPM_P1;HPM_P2
2023/01/20 00:00:27;;;;;;;;;;;;;;;3.16;82.78;101093.59;5049307;28;19916;-49
2023/01/20 00:02:52;;;;;;;;;;;;;;;3.15;82.63;101099.44;5047435;28;19939;-48
2023/01/20 00:05:18;;;;;;;;;;;;;;;3.14;83.14;101108.72;5046402;28;20397;-44
2023/01/20 00:07:43;;;;;;;;;;;;;;;3.11;83.17;101117.84;5049652;28;19921;-44
2023/01/20 00:10:09;;;;;;;;;;;;;;;3.11;82.96;101128.88;5048281;28;19928;-45
2023/01/20 00:12:34;;;;;;;;;;;;;;;3.10;83.09;101122.03;5046619;28;20405;-43
2023/01/20 00:14:59;;;;;;;;;;;;;;;3.11;82.97;101120.38;5048163;28;19947;-45
2023/01/20 00:17:24;;;;;;;;;;;;;;;3.12;83.02;101127.19;5047823;28;20408;-45
2023/01/20 00:19:50;;;;;;;;;;;;;;;3.10;83.22;101119.50;5048342;28;20277;-48
2023/01/20 00:22:15;;;;;;;;;;;;;;;3.10;83.09;101124.56;5047631;28;20448;-48
2023/01/20 00:24:40;;;;;;;;;;;;;;;3.10;83.02;101129.66;5048083;28;19925;-43
2023/01/20 00:27:06;;;;;;;;;;;;;;;3.10;83.35;101128.78;5050576;28;19921;-47
2023/01/20 00:29:31;;;;;;;;;;;;;;;3.10;83.04;101129.66;5045414;28;19928;-48
2023/01/20 00:31:57;;;;;;;;;;;;;;;3.10;83.38;101138.94;5048661;28;19925;-48
2023/01/20 00:34:22;;;;;;;;;;;;;;;3.09;83.52;101140.56;5045118;28;19929;-46
2023/01/20 00:36:47;;;;;;;;;;;;;;;3.09;83.52;101148.19;5047625;28;19921;-49
2023/01/20 00:39:12;;;;;;;;;;;;;;;3.10;83.52;101141.50;5046791;28;19943;-46
2023/01/20 00:41:38;;;;;;;;;;;;;;;3.10;83.24;101144.91;5048017;28;20364;-47
2023/01/20 00:44:03;;;;;;;;;;;;;;;3.10;83.30;101144.91;5046505;28;20366;-45
2023/01/20 00:46:28;;;;;;;;;;;;;;;3.08;83.69;101141.38;5048259;28;20280;-46
2023/01/20 00:48:53;;;;;;;;;;;;;;;3.10;83.59;101136.41;5052982;28;19921;-46
2023/01/20 00:51:19;;;;;;;;;;;;;;;3.08;83.79;101143.03;5048490;28;19975;-48
2023/01/20 00:53:44;;;;;;;;;;;;;;;3.06;83.82;101140.41;5049858;28;19921;-48
2023/01/20 00:56:09;;;;;;;;;;;;;;;3.05;83.65;101143.72;5046953;28;20377;-48
2023/01/20 00:58:34;;;;;;;;;;;;;;;3.07;83.69;101146.38;5048625;28;19924;-48
2023/01/20 01:01:00;;;;;;;;;;;;;;;3.04;83.39;101144.53;5047094;28;19960;-47
2023/01/20 01:03:28;;;;;;;;;;;;;;;3.07;83.59;101153.97;5050057;28;19917;-48
2023/01/20 01:06:03;;;;;;;;;;;;;;;3.05;83.38;101156.44;5046286;28;19921;-45
2023/01/20 01:08:28;;;;;;;;;;;;;;;3.07;83.42;101159.06;5049007;28;20415;-47
2023/01/20 01:10:54;;;;;;;;;;;;;;;3.08;83.44;101169.31;5048745;28;19929;-43
2023/01/20 01:13:19;;;;;;;;;;;;;;;3.09;83.73;101171.06;5051616;28;19924;-46
2023/01/20 01:15:48;;;;;;;;;;;;;;;3.10;83.63;101177.94;5049058;28;19924;-48
2023/01/20 01:18:13;;;;;;;;;;;;;;;3.13;83.33;101187.41;5050705;28;20366;-47
2023/01/20 01:20:38;;;;;;;;;;;;;;;3.12;83.21;101185.66;5050519;28;19959;-46
2023/01/20 01:23:04;;;;;;;;;;;;;;;3.11;83.32;101187.31;5049367;28;19963;-49
2023/01/20 01:25:29;;;;;;;;;;;;;;;3.10;83.59;101195.72;5049081;28;19975;-48
2023/01/20 01:27:54;;;;;;;;;;;;;;;3.09;83.62;101193.06;5050961;28;19921;-48
2023/01/20 01:30:20;;;;;;;;;;;;;;;3.09;83.43;101190.50;5044260;28;19920;-45
2023/01/20 01:32:46;;;;;;;;;;;;;;;3.09;83.64;101180.34;5043757;28;19925;-45
2023/01/20 01:35:11;;;;;;;;;;;;;;;3.09;83.73;101191.41;5031724;28;19921;-49
2023/01/20 01:37:37;;;;;;;;;;;;;;;3.09;83.56;101199.00;5048977;28;19921;-47
2023/01/20 01:40:02;;;;;;;;;;;;;;;3.09;83.75;101193.94;5051440;28;19948;-46
2023/01/20 01:42:28;;;;;;;;;;;;;;;3.08;83.57;101196.38;5048922;28;19927;-44
2023/01/20 01:45:11;;;;;;;;;;;;;;;3.07;83.65;101204.78;5048390;28;19927;-46
2023/01/20 01:47:41;;;;;;;;;;;;;;;3.07;83.76;101203.13;5047102;28;20293;-47
2023/01/20 01:50:07;;;;;;;;;;;;;;;3.08;83.86;101199.81;5051784;28;19951;-47
2023/01/20 01:52:33;;;;;;;;;;;;;;;3.07;83.38;101207.34;5048200;28;19970;-47
2023/01/20 01:54:59;;;;;;;;;;;;;;;3.06;83.74;101197.97;5052874;28;19921;-47
2023/01/20 01:57:24;;;;;;;;;;;;;;;3.07;83.78;101202.25;5048295;28;19936;-49
2023/01/20 01:59:50;;;;;;;;;;;;;;;3.06;83.80;101200.50;5049568;28;19952;-47
2023/01/20 02:02:15;;;;;;;;;;;;;;;3.06;83.55;101201.38;5049462;28;19923;-49
2023/01/20 02:04:41;;;;;;;;;;;;;;;3.04;83.77;101197.88;5049169;28;19921;-48
2023/01/20 02:07:15;;;;;;;;;;;;;;;3.04;83.93;101200.41;5047476;28;19924;-50
2023/01/20 02:09:40;;;;;;;;;;;;;;;3.01;84.03;101195.13;5048574;28;19924;-47
2023/01/20 02:12:08;;;;;;;;;;;;;;;3.02;84.10;101194.34;5050756;28;20282;-45
2023/01/20 02:14:35;;;;;;;;;;;;;;;3.00;84.03;101195.91;5047705;28;19927;-43
2023/01/20 02:17:12;;;;;;;;;;;;;;;3.00;84.13;101202.66;5049007;28;19972;-49
2023/01/20 02:19:56;;;;;;;;;;;;;;;2.99;84.02;101191.63;5049443;28;20015;-49
2023/01/20 02:22:31;;;;;;;;;;;;;;;2.98;83.97;101197.47;5031775;28;19995;-49
2023/01/20 02:25:05;;;;;;;;;;;;;;;2.98;84.16;101197.47;5050524;28;19927;-46
2023/01/20 02:27:46;;;;;;;;;;;;;;;3.00;84.25;101201.00;5049128;28;19928;-45
2023/01/20 02:30:11;;;;;;;;;;;;;;;2.96;84.04;101202.44;5045925;28;19974;-45
2023/01/20 02:32:42;;;;;;;;;;;;;;;2.96;84.32;101199.91;5049529;28;19916;-44
2023/01/20 02:35:15;;;;;;;;;;;;;;;2.96;84.19;101209.19;5048188;28;19929;-44
2023/01/20 02:37:49;;;;;;;;;;;;;;;2.94;84.38;101204.00;5044493;28;19917;-49
2023/01/20 02:40:24;;;;;;;;;;;;;;;2.89;84.21;101201.97;5046676;28;19916;-46
2023/01/20 02:42:49;;;;;;;;;;;;;;;2.89;84.46;101210.47;5047450;28;20297;-46
2023/01/20 02:45:18;;;;;;;;;;;;;;;2.86;84.33;101210.28;5049318;28;19924;-49
2023/01/20 02:47:46;;;;;;;;;;;;;;;2.88;84.52;101201.09;5047631;28;20034;-47
2023/01/20 02:50:14;;;;;;;;;;;;;;;2.88;84.33;101190.06;5048851;28;19980;-46
2023/01/20 02:52:42;;;;;;;;;;;;;;;2.86;84.59;101201.78;5049484;28;20313;-44
2023/01/20 02:55:10;;;;;;;;;;;;;;;2.86;84.38;101206.88;5049125;28;19924;-47
2023/01/20 02:57:39;;;;;;;;;;;;;;;2.88;84.31;101210.38;5046944;28;19925;-48
2023/01/20 03:00:11;;;;;;;;;;;;;;;2.89;84.30;101200.31;5049048;28;20468;-49
2023/01/20 03:02:37;;;;;;;;;;;;;;;2.88;84.17;101207.84;5047993;28;19913;-48
2023/01/20 03:05:06;;;;;;;;;;;;;;;2.88;84.07;101205.28;5048249;28;19962;-48
2023/01/20 03:07:33;;;;;;;;;;;;;;;2.89;84.05;101212.13;5048052;28;20333;-48
2023/01/20 03:10:01;;;;;;;;;;;;;;;2.88;84.14;101212.91;5047720;28;19928;-44
2023/01/20 03:12:34;;;;;;;;;;;;;;;2.88;84.00;101215.44;5030944;28;19932;-46
2023/01/20 03:14:59;;;;;;;;;;;;;;;2.88;83.97;101208.72;5046650;28;20337;-48
2023/01/20 03:17:24;;;;;;;;;;;;;;;2.87;84.18;101223.84;5050567;28;20027;-51
2023/01/20 03:19:50;;;;;;;;;;;;;;;2.87;84.23;101231.47;5051053;28;19975;-46
2023/01/20 03:22:15;;;;;;;;;;;;;;;2.88;84.15;101240.84;5048245;28;19974;-47
2023/01/20 03:24:41;;;;;;;;;;;;;;;2.86;84.03;101228.06;5049690;28;20439;-46
2023/01/20 03:27:07;;;;;;;;;;;;;;;2.85;84.10;101231.38;5048064;28;20019;-49
2023/01/20 03:29:32;;;;;;;;;;;;;;;2.84;83.97;101233.81;5047522;28;20730;-47
2023/01/20 03:31:59;;;;;;;;;;;;;;;2.82;84.09;101231.16;5047249;28;19967;-45
2023/01/20 03:34:25;;;;;;;;;;;;;;;2.81;84.26;101231.97;5049091;28;19917;-49
2023/01/20 03:36:52;;;;;;;;;;;;;;;2.80;84.15;101236.94;5048203;28;19920;-46
2023/01/20 03:39:17;;;;;;;;;;;;;;;2.79;84.35;101232.63;5045941;28;19917;-44
2023/01/20 03:41:55;;;;;;;;;;;;;;;2.80;84.13;101231.88;5048362;28;19927;-48
2023/01/20 03:44:29;;;;;;;;;;;;;;;2.79;84.36;101238.59;5048507;28;19917;-47
2023/01/20 03:47:07;;;;;;;;;;;;;;;2.79;84.47;101240.22;5048345;28;20369;-47
2023/01/20 03:49:37;;;;;;;;;;;;;;;2.79;84.23;101238.59;5045996;28;19983;-43
2023/01/20 03:52:12;;;;;;;;;;;;;;;2.80;84.02;101240.34;5046886;28;20408;-48
2023/01/20 03:54:50;;;;;;;;;;;;;;;2.82;84.21;101246.41;5046241;28;19925;-44
2023/01/20 03:57:19;;;;;;;;;;;;;;;2.81;84.33;101246.31;5047276;28;20428;-44
2023/01/20 03:59:47;;;;;;;;;;;;;;;2.80;84.29;101245.44;5047933;28;19917;-45
2023/01/20 04:02:12;;;;;;;;;;;;;;;2.80;84.37;101242.03;5048520;28;19924;-42
2023/01/20 04:04:39;;;;;;;;;;;;;;;2.81;84.17;101243.78;5047570;28;19924;-45
2023/01/20 04:07:06;;;;;;;;;;;;;;;2.80;84.16;101242.91;5046893;28;19917;-43
2023/01/20 04:09:34;;;;;;;;;;;;;;;2.78;84.21;101246.97;5047225;28;20023;-46
2023/01/20 04:12:00;;;;;;;;;;;;;;;2.79;84.37;101247.84;5048247;28;19924;-42
2023/01/20 04:14:25;;;;;;;;;;;;;;;2.78;84.14;101241.03;5047365;28;19925;-44
2023/01/20 04:16:52;;;;;;;;;;;;;;;2.79;84.10;101245.31;5048993;28;19970;-44
2023/01/20 04:19:17;;;;;;;;;;;;;;;2.78;84.04;101248.63;5045952;28;19956;-49
2023/01/20 04:21:44;;;;;;;;;;;;;;;2.79;84.25;101246.22;5054325;28;19975;-45
2023/01/20 04:24:20;;;;;;;;;;;;;;;2.79;84.27;101238.59;5049498;28;19917;-44
2023/01/20 04:26:45;;;;;;;;;;;;;;;2.77;84.37;101247.75;5052538;28;19917;-43
2023/01/20 04:29:11;;;;;;;;;;;;;;;2.77;84.34;101242.69;5049511;28;20366;-45
2023/01/20 04:31:36;;;;;;;;;;;;;;;2.77;84.50;101240.16;5050055;28;19920;-42
2023/01/20 04:34:02;;;;;;;;;;;;;;;2.75;84.56;101236.63;5052074;28;19920;-45
2023/01/20 04:36:27;;;;;;;;;;;;;;;2.74;84.52;101242.50;5050805;28;20278;-45
2023/01/20 04:38:52;;;;;;;;;;;;;;;2.73;84.81;101250.91;5049725;28;19968;-44
2023/01/20 04:41:18;;;;;;;;;;;;;;;2.71;84.71;101247.38;5035132;28;19966;-41
2023/01/20 04:43:44;;;;;;;;;;;;;;;2.72;84.67;101246.56;5052062;28;19921;-44
2023/01/20 04:46:09;;;;;;;;;;;;;;;2.73;84.63;101253.44;5049825;28;20353;-43
2023/01/20 04:48:35;;;;;;;;;;;;;;;2.71;84.74;101256.63;5033806;28;19966;-48
2023/01/20 04:51:02;;;;;;;;;;;;;;;2.71;84.66;101264.25;5048099;28;19916;-46
2023/01/20 04:53:27;;;;;;;;;;;;;;;2.68;84.71;101262.41;5050733;28;20398;-45
2023/01/20 04:55:52;;;;;;;;;;;;;;;2.68;84.58;101258.22;5050530;28;20063;-47
2023/01/20 04:58:18;;;;;;;;;;;;;;;2.68;84.52;101262.41;5051051;28;19984;-49
2023/01/20 05:00:43;;;;;;;;;;;;;;;2.65;84.46;101268.16;5031819;28;19925;-45
2023/01/20 05:03:08;;;;;;;;;;;;;;;2.65;84.22;101268.16;5051000;28;20270;-47
2023/01/20 05:05:34;;;;;;;;;;;;;;;2.66;84.46;101258.88;5049631;28;20301;-46
2023/01/20 05:07:59;;;;;;;;;;;;;;;2.65;84.50;101259.66;5051741;28;20284;-46
2023/01/20 05:10:24;;;;;;;;;;;;;;;2.64;84.57;101255.38;5049164;28;19952;-43
2023/01/20 05:12:49;;;;;;;;;;;;;;;2.63;84.32;101261.22;5050455;28;20732;-44
2023/01/20 05:15:15;;;;;;;;;;;;;;;2.64;84.27;101273.13;5053199;28;20400;-47
2023/01/20 05:17:40;;;;;;;;;;;;;;;2.60;84.41;101266.97;5050492;28;20344;-47
2023/01/20 05:20:05;;;;;;;;;;;;;;;2.58;84.48;101278.69;5049983;28;19917;-48
2023/01/20 05:22:33;;;;;;;;;;;;;;;2.55;84.48;101275.97;5048188;28;19975;-44
2023/01/20 05:24:59;;;;;;;;;;;;;;;2.56;84.50;101292.06;5050101;28;19960;-46
2023/01/20 05:27:24;;;;;;;;;;;;;;;2.55;84.51;101282.66;5049604;28;20451;-48
2023/01/20 05:29:49;;;;;;;;;;;;;;;2.55;84.48;101275.97;5049127;28;19939;-44
2023/01/20 05:32:15;;;;;;;;;;;;;;;2.57;84.47;101282.00;5045665;28;19982;-47
2023/01/20 05:34:40;;;;;;;;;;;;;;;2.58;84.26;101280.34;5049814;28;19931;-45
2023/01/20 05:37:05;;;;;;;;;;;;;;;2.56;84.16;101282.78;5048061;28;20301;-48
2023/01/20 05:39:30;;;;;;;;;;;;;;;2.53;84.23;101271.53;5051697;28;20284;-47
2023/01/20 05:41:56;;;;;;;;;;;;;;;2.51;84.27;101281.59;5047745;28;19922;-42
2023/01/20 05:44:21;;;;;;;;;;;;;;;2.52;84.36;101282.47;5046580;28;20286;-48
2023/01/20 05:46:46;;;;;;;;;;;;;;;2.53;84.42;101276.63;5051419;28;19921;-44
2023/01/20 05:49:11;;;;;;;;;;;;;;;2.53;84.36;101281.69;5048186;28;19956;-48
2023/01/20 05:51:37;;;;;;;;;;;;;;;2.54;84.51;101289.41;5047439;28;20372;-49
2023/01/20 05:54:02;;;;;;;;;;;;;;;2.52;84.57;101278.28;5048041;28;20390;-48
2023/01/20 05:56:27;;;;;;;;;;;;;;;2.53;84.52;101277.50;5048716;28;19925;-48
2023/01/20 05:58:54;;;;;;;;;;;;;;;2.54;84.39;101281.78;5048967;28;19931;-47
2023/01/20 06:01:19;;;;;;;;;;;;;;;2.53;84.65;101285.09;5048253;28;19928;-43
2023/01/20 06:03:44;;;;;;;;;;;;;;;2.53;84.36;101285.09;5048307;28;20301;-47
2023/01/20 06:06:13;;;;;;;;;;;;;;;2.50;84.67;101287.47;5048758;28;20312;-47
2023/01/20 06:08:38;;;;;;;;;;;;;;;2.50;84.46;101286.59;5048759;28;20392;-48
2023/01/20 06:11:03;;;;;;;;;;;;;;;2.49;84.63;101290.78;5047931;28;19975;-48
2023/01/20 06:13:29;;;;;;;;;;;;;;;2.50;84.37;101292.53;5045815;28;19939;-45
2023/01/20 06:15:54;;;;;;;;;;;;;;;2.50;84.52;101295.06;5048118;28;19928;-44
2023/01/20 06:18:19;;;;;;;;;;;;;;;2.50;84.83;101291.66;5047658;28;19928;-48
2023/01/20 06:20:45;;;;;;;;;;;;;;;2.49;84.47;101295.84;5049379;28;19928;-45
2023/01/20 06:23:10;;;;;;;;;;;;;;;2.51;84.69;101298.50;5049030;28;19917;-48
2023/01/20 06:25:35;;;;;;;;;;;;;;;2.51;84.79;101294.28;5047798;28;19921;-47
2023/01/20 06:28:01;;;;;;;;;;;;;;;2.49;84.76;101289.88;5050508;28;19917;-48
2023/01/20 06:30:26;;;;;;;;;;;;;;;2.49;84.84;101295.84;5047891;28;20372;-48
2023/01/20 06:32:53;;;;;;;;;;;;;;;2.50;84.79;101291.66;5049268;28;20015;-47
2023/01/20 06:35:18;;;;;;;;;;;;;;;2.50;84.73;101292.53;5046726;28;20011;-44
2023/01/20 06:37:43;;;;;;;;;;;;;;;2.51;84.80;101295.94;5039791;28;20432;-43
2023/01/20 06:40:09;;;;;;;;;;;;;;;2.51;84.82;101294.28;5045162;28;20342;-46
2023/01/20 06:42:34;;;;;;;;;;;;;;;2.51;85.12;101293.41;5045260;28;19931;-45
2023/01/20 06:44:59;;;;;;;;;;;;;;;2.49;84.97;101290.78;5047274;28;19916;-48
2023/01/20 06:47:25;;;;;;;;;;;;;;;2.48;85.13;101294.06;5046937;28;19921;-44
2023/01/20 06:49:50;;;;;;;;;;;;;;;2.52;84.93;101295.16;5048873;28;20019;-45
2023/01/20 06:52:15;;;;;;;;;;;;;;;2.50;85.14;101300.16;5049476;28;19917;-47
2023/01/20 06:54:40;;;;;;;;;;;;;;;2.49;85.16;101295.84;5048201;28;19929;-47
2023/01/20 06:57:06;;;;;;;;;;;;;;;2.49;84.81;101294.94;5048275;28;20012;-50
2023/01/20 06:59:31;;;;;;;;;;;;;;;2.51;85.13;101293.41;5048665;28;19970;-47
2023/01/20 07:01:56;;;;;;;;;;;;;;;2.53;85.10;101291.84;5049273;28;19999;-46
2023/01/20 07:04:21;;;;;;;;;;;;;;;2.54;85.25;101301.22;5045366;28;19968;-49
2023/01/20 07:06:47;;;;;;;;;;;;;;;2.53;85.18;101297.81;5032900;28;19971;-47
2023/01/20 07:09:12;;;;;;;;;;;;;;;2.52;85.11;101298.59;5048144;28;19924;-48
2023/01/20 07:11:37;;;;;;;;;;;;;;;2.52;85.19;101305.31;5048614;28;19920;-45
2023/01/20 07:14:03;;;;;;;;;;;;;;;2.52;85.41;101311.28;5048041;28;19929;-47
2023/01/20 07:16:29;;;;;;;;;;;;;;;2.52;85.35;101305.31;5047658;28;20020;-47
2023/01/20 07:18:54;;;;;;;;;;;;;;;2.51;85.35;101306.09;5048028;28;20007;-44
2023/01/20 07:21:19;;;;;;;;;;;;;;;2.49;85.40;101310.19;5048531;28;19928;-49
2023/01/20 07:23:45;;;;;;;;;;;;;;;2.48;85.71;101311.84;5048244;28;20022;-47
2023/01/20 07:26:11;;;;;;;;;;;;;;;2.48;85.77;101323.66;5048700;28;20408;-46
2023/01/20 07:28:37;;;;;;;;;;;;;;;2.49;85.88;101322.88;5046908;28;19927;-46
2023/01/20 07:31:06;;;;;;;;;;;;;;;2.49;85.77;101322.88;5048670;28;19925;-49
2023/01/20 07:33:32;;;;;;;;;;;;;;;2.51;85.92;101329.81;5047817;28;19920;-44
2023/01/20 07:35:58;;;;;;;;;;;;;;;2.51;85.83;101328.94;5047525;28;19917;-46
2023/01/20 07:38:23;;;;;;;;;;;;;;;2.52;85.71;101333.25;5048657;28;19929;-44
2023/01/20 07:40:48;;;;;;;;;;;;;;;2.54;85.86;101336.75;5048514;28;20447;-47
2023/01/20 07:43:14;;;;;;;;;;;;;;;2.57;85.89;101354.75;5047889;28;20073;-47
2023/01/20 07:45:39;;;;;;;;;;;;;;;2.55;85.69;101344.50;5047094;28;19921;-47
2023/01/20 07:48:06;;;;;;;;;;;;;;;2.55;85.97;101339.41;5048386;28;19928;-48
2023/01/20 07:50:32;;;;;;;;;;;;;;;2.56;85.98;101341.19;5046998;28;19917;-49
2023/01/20 07:52:57;;;;;;;;;;;;;;;2.54;85.87;101340.16;5049009;28;19921;-48
2023/01/20 07:55:22;;;;;;;;;;;;;;;2.53;85.89;101347.69;5047400;28;19925;-45
2023/01/20 07:57:47;;;;;;;;;;;;;;;2.55;86.03;101348.66;5048465;28;19928;-46
2023/01/20 08:00:13;;;;;;;;;;;;;;;2.55;85.93;101347.03;5050533;28;20020;-48
2023/01/20 08:02:38;;;;;;;;;;;;;;;2.57;85.98;101353.09;5051931;28;19920;-48
2023/01/20 08:05:03;;;;;;;;;;;;;;;2.58;86.16;101347.22;5052679;28;19925;-47
2023/01/20 08:07:29;;;;;;;;;;;;;;;2.56;86.16;101343.72;5050365;28;19970;-47
2023/01/20 08:09:54;;;;;;;;;;;;;;;2.54;86.35;101347.78;5051799;28;19921;-47
2023/01/20 08:12:19;;;;;;;;;;;;;;;2.54;86.45;101345.25;5033492;28;20058;-49
2023/01/20 08:14:45;;;;;;;;;;;;;;;2.53;86.35;101338.41;5052053;28;20371;-47
2023/01/20 08:17:10;;;;;;;;;;;;;;;2.53;86.47;101342.63;5032482;28;19931;-48
2023/01/20 08:19:35;;;;;;;;;;;;;;;2.52;86.52;101344.28;5051793;28;19995;-46
2023/01/20 08:22:01;;;;;;;;;;;;;;;2.52;86.97;101354.44;5049839;28;19931;-50
2023/01/20 08:24:26;;;;;;;;;;;;;;;2.50;86.58;101344.97;5050405;28;19928;-52
2023/01/20 08:26:51;;;;;;;;;;;;;;;2.49;87.07;101353.31;5051364;28;19936;-50
2023/01/20 08:29:16;;;;;;;;;;;;;;;2.48;87.09;101347.38;5033503;28;19921;-51
2023/01/20 08:31:42;;;;;;;;;;;;;;;2.47;87.09;101353.22;5051973;28;20377;-51
2023/01/20 08:34:07;;;;;;;;;;;;;;;2.48;87.11;101367.69;5048879;28;19928;-51
2023/01/20 08:36:34;;;;;;;;;;;;;;;2.48;87.15;101370.22;5051674;28;20008;-50
2023/01/20 08:39:01;;;;;;;;;;;;;;;2.50;87.23;101375.44;5051420;28;19987;-45
2023/01/20 08:41:28;;;;;;;;;;;;;;;2.49;87.10;101371.09;5051885;28;19912;-47
2023/01/20 08:43:53;;;;;;;;;;;;;;;2.48;87.33;101370.22;5049046;28;20292;-51
2023/01/20 08:46:20;;;;;;;;;;;;;;;2.50;87.24;101376.31;5051723;28;19913;-51
2023/01/20 08:48:46;;;;;;;;;;;;;;;2.52;87.39;101377.28;5050473;28;20000;-50
2023/01/20 08:51:17;;;;;;;;;;;;;;;2.54;87.26;101383.34;5052127;28;20007;-47
2023/01/20 08:53:42;;;;;;;;;;;;;;;2.55;87.11;101385.13;5049362;28;19982;-51
2023/01/20 08:56:08;;;;;;;;;;;;;;;2.57;86.93;101383.56;5050432;28;19921;-52
2023/01/20 08:58:33;;;;;;;;;;;;;;;2.59;87.21;101382.00;5051266;28;19923;-52
2023/01/20 09:00:59;;;;;;;;;;;;;;;2.58;87.22;101377.69;5050588;28;19971;-52
2023/01/20 09:03:24;;;;;;;;;;;;;;;2.60;87.20;101385.41;5051868;28;20365;-50
2023/01/20 09:05:50;;;;;;;;;;;;;;;2.59;87.07;101388.72;5047296;28;20003;-49
2023/01/20 09:08:16;;;;;;;;;;;;;;;2.59;87.41;101382.00;5049567;28;20240;-49
2023/01/20 09:10:41;;;;;;;;;;;;;;;2.58;87.40;101376.81;5050536;28;19921;-50
2023/01/20 09:13:06;;;;;;;;;;;;;;;2.56;87.48;101380.91;5051514;28;20293;-49
2023/01/20 09:15:32;;;;;;;;;;;;;;;2.56;87.46;101386.88;5048388;28;20034;-50
2023/01/20 09:18:00;;;;;;;;;;;;;;;2.55;87.62;101387.66;5050129;28;20412;-50
2023/01/20 09:20:27;;;;;;;;;;;;;;;2.56;87.69;101384.34;5048333;28;20412;-52
2023/01/20 09:22:52;;;;;;;;;;;;;;;2.55;87.57;101381.66;5048270;28;19971;-51
2023/01/20 09:25:18;;;;;;;;;;;;;;;2.56;87.60;101384.34;5048311;28;19971;-50
2023/01/20 09:27:43;;;;;;;;;;;;;;;2.55;87.68;101377.50;5032690;28;19920;-51
2023/01/20 09:30:09;;;;;;;;;;;;;;;2.55;87.45;101386.75;5049750;28;20058;-49
2023/01/20 09:32:34;;;;;;;;;;;;;;;2.54;87.65;101388.41;5050113;28;19978;-49
2023/01/20 09:34:59;;;;;;;;;;;;;;;2.54;87.86;101385.88;5049775;28;19925;-48
2023/01/20 09:46:13;;;;;;;;;;;;;;;2.56;87.76;101381.78;5047826;28;19924;-50
2023/01/20 09:54:24;;;;;;;;;;;;;;;2.59;87.55;101391.28;5049190;28;19936;-49
2023/01/20 09:56:51;;;;;;;;;;;;;;;2.59;87.79;101387.06;5048395;28;19927;-50
2023/01/20 09:59:25;;;;;;;;;;;;;;;2.57;87.49;101386.09;5048695;28;20377;-53
2023/01/20 10:01:53;;;;;;;;;;;;;;;2.58;87.76;101384.44;5049922;28;20370;-51
2023/01/20 10:04:21;;;;;;;;;;;;;;;2.59;87.74;101383.66;5049971;28;19917;-50
2023/01/20 10:06:56;;;;;;;;;;;;;;;2.60;87.91;101378.66;5047500;28;19917;-50
2023/01/20 10:09:21;;;;;;;;;;;;;;;2.59;87.64;101383.66;5049455;28;19921;-52
2023/01/20 10:11:47;;;;;;;;;;;;;;;2.59;87.94;101382.00;5049556;28;19920;-49
2023/01/20 10:14:15;;;;;;;;;;;;;;;2.59;87.92;101383.66;5049456;28;19963;-50
2023/01/20 10:16:47;;;;;;;;;;;;;;;2.57;88.00;101388.63;5048077;28;20380;-48
2023/01/20 10:19:17;;;;;;;;;;;;;;;2.57;87.89;101391.16;5047606;28;20403;-49
2023/01/20 10:21:57;;;;;;;;;;;;;;;2.57;87.79;101393.72;5047777;28;19956;-50
2023/01/20 10:24:31;;;;;;;;;;;;;;;2.57;88.07;101391.16;5048348;28;20019;-52
2023/01/20 10:27:00;;;;;;;;;;;;;;;2.56;88.05;101396.16;5049695;28;19921;-49
2023/01/20 10:29:34;;;;;;;;;;;;;;;2.55;87.93;101386.75;5048298;28;20377;-50
2023/01/20 10:32:00;;;;;;;;;;;;;;;2.54;87.94;101393.47;5047324;28;19956;-50
2023/01/20 10:34:30;;;;;;;;;;;;;;;2.56;87.96;101396.16;5049167;28;19944;-51
2023/01/20 10:37:02;;;;;;;;;;;;;;;2.54;88.17;101397.69;5049626;28;19955;-49
2023/01/20 10:39:32;;;;;;;;;;;;;;;2.54;87.94;101397.69;5047779;28;19917;-47
2023/01/20 10:42:03;;;;;;;;;;;;;;;2.54;88.17;101401.09;5049553;28;20366;-49
2023/01/20 10:44:31;;;;;;;;;;;;;;;2.55;88.24;101401.97;5048095;28;19963;-49
2023/01/20 10:47:04;;;;;;;;;;;;;;;2.55;88.27;101402.88;5049848;28;19955;-47
2023/01/20 10:49:48;;;;;;;;;;;;;;;2.58;88.34;101400.53;5043759;28;20404;-50
2023/01/20 10:52:16;;;;;;;;;;;;;;;2.58;87.89;101395.47;5049562;28;19958;-48
2023/01/20 10:54:53;;;;;;;;;;;;;;;2.60;88.02;101400.63;5047690;28;20381;-51
2023/01/20 10:57:18;;;;;;;;;;;;;;;2.60;87.88;101398.97;5048259;28;20006;-51
2023/01/20 10:59:46;;;;;;;;;;;;;;;2.62;88.12;101402.53;5048101;28;20012;-50
2023/01/20 11:02:18;;;;;;;;;;;;;;;2.62;87.96;101401.66;5050174;28;20291;-52
2023/01/20 11:04:44;;;;;;;;;;;;;;;2.64;88.09;101406.03;5046259;28;19923;-50
2023/01/20 11:07:14;;;;;;;;;;;;;;;2.65;88.05;101400.19;5048160;28;19925;-50
2023/01/20 11:09:41;;;;;;;;;;;;;;;2.69;87.82;101407.25;5045495;28;19920;-49
2023/01/20 11:12:11;;;;;;;;;;;;;;;2.71;87.72;101406.47;5049078;28;19921;-50
2023/01/20 11:14:36;;;;;;;;;;;;;;;2.73;87.82;101409.97;5048237;28;19925;-51
2023/01/20 11:17:05;;;;;;;;;;;;;;;2.72;87.65;101401.47;5031061;28;19928;-51
2023/01/20 11:19:44;;;;;;;;;;;;;;;2.73;87.35;101418.50;5047483;28;19925;-50
2023/01/20 11:22:10;;;;;;;;;;;;;;;2.73;87.67;101407.44;5048068;28;19925;-51
2023/01/20 11:24:41;;;;;;;;;;;;;;;2.74;87.56;101409.22;5048150;28;19999;-48
2023/01/20 11:27:11;;;;;;;;;;;;;;;2.75;87.55;101416.06;5048326;28;19952;-49
2023/01/20 11:29:41;;;;;;;;;;;;;;;2.75;87.48;101419.47;5046596;28;19923;-51
2023/01/20 11:32:22;;;;;;;;;;;;;;;2.77;87.44;101417.03;5046318;28;20011;-50
2023/01/20 11:34:47;;;;;;;;;;;;;;;2.77;87.67;101417.91;5052751;28;19960;-50
2023/01/20 11:37:18;;;;;;;;;;;;;;;2.80;87.45;101422.34;5050506;28;19963;-49
2023/01/20 11:39:56;;;;;;;;;;;;;;;2.80;87.47;101420.69;5050818;28;20274;-49
2023/01/20 11:42:23;;;;;;;;;;;;;;;2.81;87.56;101424.97;5052081;28;19971;-51
2023/01/20 11:44:59;;;;;;;;;;;;;;;2.83;87.51;101420.00;5053142;28;20008;-51
2023/01/20 11:47:24;;;;;;;;;;;;;;;2.84;87.36;101414.13;5050930;28;19928;-50
2023/01/20 11:50:07;;;;;;;;;;;;;;;2.86;87.43;101412.59;5053512;28;20375;-51
2023/01/20 11:52:33;;;;;;;;;;;;;;;2.86;87.35;101413.47;5051355;28;19921;-49
2023/01/20 11:55:09;;;;;;;;;;;;;;;2.88;87.27;101416.09;5052834;28;19921;-50
2023/01/20 11:57:36;;;;;;;;;;;;;;;2.89;87.37;101411.13;5051170;28;19916;-49
2023/01/20 12:00:02;;;;;;;;;;;;;;;2.91;87.25;101413.75;5052463;28;19921;-48
2023/01/20 12:02:27;;;;;;;;;;;;;;;2.92;87.76;101420.63;5051615;28;19924;-49
2023/01/20 12:04:58;;;;;;;;;;;;;;;2.94;87.66;101421.59;5052596;28;19939;-51
2023/01/20 12:07:50;;;;;;;;;;;;;;;2.95;87.59;101423.34;5044823;28;20388;-46
2023/01/20 12:10:21;;;;;;;;;;;;;;;2.97;87.66;101431.94;5045595;28;19917;-49
2023/01/20 12:12:50;;;;;;;;;;;;;;;2.98;87.58;101421.03;5052553;28;19920;-47
2023/01/20 12:15:21;;;;;;;;;;;;;;;2.98;87.63;101426.13;5051240;28;19935;-48
2023/01/20 12:17:46;;;;;;;;;;;;;;;2.99;87.89;101422.78;5050724;28;19964;-48
2023/01/20 12:20:14;;;;;;;;;;;;;;;3.02;88.07;101430.59;5051489;28;19960;-49
2023/01/20 12:22:43;;;;;;;;;;;;;;;3.03;88.21;101429.81;5050446;28;20392;-47
2023/01/20 12:25:13;;;;;;;;;;;;;;;3.07;88.26;101425.84;5048579;28;20277;-49
2023/01/20 12:27:44;;;;;;;;;;;;;;;3.07;88.01;101426.72;5051546;28;19927;-49
2023/01/20 12:30:21;;;;;;;;;;;;;;;3.10;88.32;101428.59;5050725;28;19964;-48
2023/01/20 12:32:47;;;;;;;;;;;;;;;3.10;88.08;101426.06;5052178;28;19919;-49
2023/01/20 12:35:13;;;;;;;;;;;;;;;3.09;88.16;101430.22;5051851;28;20300;-45
2023/01/20 12:37:55;;;;;;;;;;;;;;;3.07;87.91;101429.25;5051537;28;19921;-49
2023/01/20 12:40:23;;;;;;;;;;;;;;;3.07;88.29;101428.38;5049579;28;21127;-48
2023/01/20 12:43:07;;;;;;;;;;;;;;;3.07;87.97;101425.84;5051939;28;19917;-49
2023/01/20 12:45:41;;;;;;;;;;;;;;;3.08;88.23;101428.47;5051801;28;19966;-47
2023/01/20 12:48:06;;;;;;;;;;;;;;;3.10;88.10;101429.47;5050715;28;19939;-49
2023/01/20 12:50:34;;;;;;;;;;;;;;;3.11;88.07;101432.91;5049884;28;19920;-48
2023/01/20 12:53:22;;;;;;;;;;;;;;;3.10;87.85;101433.69;5052179;28;19927;-47
2023/01/20 12:55:55;;;;;;;;;;;;;;;3.08;88.13;101433.56;5037961;28;20361;-48
2023/01/20 12:58:20;;;;;;;;;;;;;;;3.10;88.00;101434.56;5049203;28;19956;-51
2023/01/20 13:00:46;;;;;;;;;;;;;;;3.12;88.21;101429.56;5049517;28;19956;-49
2023/01/20 13:03:17;;;;;;;;;;;;;;;3.11;88.27;101433.78;5033646;28;19913;-50